• Join FlightAware (Why Join?)
  • Login
  • US Flag 
10:24PM EDT


 

Airport Tracker/Info


-or-


 

Live Flight TrackerFlight Track Log ✈ ASQ4935 ✈ 15-Jul-2013 ✈ KATL - KCAK

Flight Track Log - Related Links

Times and Time Zones

All times are in EDT time to prevent confusion due to time zone crossing. See the ASQ4935 flight status page for this flight to view local times or setup timezone preferences in your user account.

Time Position Orientation Groundspeed Altitude Reporting Facility
EDT Latitude Longitude Course Direction KTS MPH feet Rate Location/Type
01:10PM 33.6500 -84.3667 76° East 185 213 2,500  Level Atlanta TRACON
01:11PM 33.6667 -84.2833 76° East 252 290 4,600 2,460 Climbing Atlanta TRACON
01:12PM 33.6833 -84.2000 76° East 273 314 7,500 2,580 Climbing Atlanta TRACON
01:13PM 33.7500 -84.1833 12° North 301 346 9,900 1,200 Climbing Atlanta TRACON
01:14PM 33.8500 -84.1833 360° North 360 414 10,000 1,260 Climbing Atlanta TRACON
01:15PM 34.0278 -84.2769 336° Northwest 377 434 13,500 1,920 Climbing Atlanta Center
01:16PM 34.1364 -84.2797 359° North 383 441 15,500 1,920 Climbing Atlanta Center
01:17PM 34.2447 -84.2825 359° North 388 447 17,400 1,620 Climbing Atlanta Center
01:18PM 34.3575 -84.2678 North 388 447 18,800 1,500 Climbing Atlanta Center
01:19PM 34.4661 -84.2428 11° North 393 452 20,400 1,500 Climbing Atlanta Center
01:20PM 34.5789 -84.2153 11° North 399 459 21,900 1,320 Climbing Atlanta Center
01:21PM 34.6875 -84.1903 11° North 404 465 23,100 1,140 Climbing Atlanta Center
01:22PM 34.8044 -84.1628 11° North 409 471 24,200 1,080 Climbing Atlanta Center
01:23PM 34.9233 -84.1350 11° North 421 484 25,300 1,080 Climbing Atlanta Center
01:24PM 35.0444 -84.1047 12° North 432 497 26,400 1,080 Climbing Atlanta Center
01:25PM 35.1675 -84.0769 10° North 437 503 27,500 1,080 Climbing Atlanta Center
01:26PM 35.2906 -84.0464 11° North 437 503 28,600 1,080 Climbing Atlanta Center
01:27PM 35.4094 -84.0031 17° North 442 509 29,700 900 Climbing Atlanta Center
01:28PM 35.5283 -83.9494 20° North 442 509 30,500 780 Climbing Atlanta Center
01:29PM 35.6494 -83.8981 19° North 447 514 31,300 780 Climbing Atlanta Center
01:30PM 35.7703 -83.8442 20° North 452 520 32,100 780 Climbing Atlanta Center
01:31PM 35.8911 -83.7928 19° North 452 520 32,900 780 Climbing Atlanta Center
01:32PM 36.0119 -83.7408 19° North 452 520 33,700 720 Climbing Atlanta Center
01:34PM 36.2203 -83.6497 19° North 455 524 35,000 420 Climbing Indianapolis Center
01:35PM 36.3394 -83.5967 20° North 456 525 35,000  Level Indianapolis Center
01:36PM 36.4592 -83.5433 20° North 457 526 35,000  Level Indianapolis Center
01:37PM 36.5947 -83.4858 19° North 454 522 35,000  Level Indianapolis Center
01:38PM 36.7131 -83.4336 19° North 446 513 35,000  Level Indianapolis Center
01:39PM 36.8308 -83.3806 20° North 446 513 35,000  Level Indianapolis Center
01:40PM 36.9486 -83.3278 20° North 444 511 35,000  Level Indianapolis Center
01:41PM 37.0672 -83.2753 19° North 448 516 35,000  Level Indianapolis Center
01:43PM 37.2061 -83.2158 19° North 446 513 35,000  Level Indianapolis Center
01:44PM 37.3258 -83.1708 17° North 446 513 35,000  Level Indianapolis Center
01:45PM 37.4475 -83.1269 16° North 450 518 35,000  Level Indianapolis Center
01:46PM 37.5678 -83.0803 17° North 451 519 35,000  Level Indianapolis Center
01:47PM 37.6889 -83.0317 18° North 453 521 35,000  Level Indianapolis Center
01:48PM 37.8089 -82.9881 16° North 448 516 35,000  Level Indianapolis Center
01:49PM 37.9483 -82.9367 16° North 446 513 35,000 -360 Level Indianapolis Center
01:50PM 38.0686 -82.8903 17° North 449 517 34,300 -900 Descending Indianapolis Center
01:51PM 38.1906 -82.8411 18° North 458 527 33,200 -1,080 Descending Indianapolis Center
01:52PM 38.3122 -82.7967 16° North 455 524 32,100 -600 Descending Indianapolis Center
01:53PM 38.4353 -82.7489 17° North 459 528 32,000 -60 Descending Indianapolis Center
01:54PM 38.5575 -82.7014 17° North 458 527 32,000  Level Indianapolis Center
01:55PM 38.6903 -82.6500 17° North 468 539 32,000  Level Indianapolis Center
01:56PM 38.8164 -82.6008 17° North 470 541 32,000  Level Indianapolis Center
01:57PM 38.9428 -82.5514 17° North 471 542 32,000  Level Indianapolis Center
01:58PM 39.0694 -82.5025 17° North 474 545 32,000 -120 Level Indianapolis Center
01:59PM 39.1964 -82.4522 17° North 474 545 31,800 -1,140 Descending Indianapolis Center
02:00PM 39.3219 -82.4019 17° North 472 543 29,700 -2,340 Descending Indianapolis Center
02:01PM 39.4628 -82.3450 17° North 439 505 27,100 -2,220 Descending Indianapolis Center
02:02PM 39.5806 -82.2986 17° North 440 506 25,200 -1,800 Descending Indianapolis Center
02:03PM 39.6992 -82.2508 17° North 444 511 23,400 -1,800 Descending Indianapolis Center
02:04PM 39.8164 -82.2042 17° North 438 504 21,600 -1,200 Descending Indianapolis Center
02:05PM 39.9331 -82.1572 17° North 436 502 21,000 -420 Descending Indianapolis Center
02:06PM 40.0494 -82.1100 17° North 435 501 20,800 -1,200 Descending Indianapolis Center
02:07PM 40.1647 -82.0625 17° North 433 498 18,600 -2,040 Descending Indianapolis Center
02:08PM 40.2789 -82.0169 17° North 415 478 16,700 -2,100 Descending Indianapolis Center
02:09PM 40.3839 -81.9750 17° North 394 453 14,400 -2,100 Descending Indianapolis Center
02:10PM 40.4822 -81.9317 19° North 369 425 12,400 -1,800 Descending Indianapolis Center
02:11PM 40.5667 -81.8486 37° Northeast 322 371 10,700 -1,500 Descending Indianapolis Center
02:12PM 40.6328 -81.7847 36° Northeast 296 341 9,300 -1,260 Descending Indianapolis Center
02:13PM 40.6636 -81.7519 39° Northeast 293 337 8,800 -1,440 Descending Cleveland Center
02:14PM 40.7228 -81.6844 41° Northeast 274 315 7,200 -1,620 Descending Cleveland Center
02:15PM 40.7775 -81.6169 43° Northeast 268 308 5,600 -1,200 Descending Cleveland Center
02:16PM 40.8403 -81.5767 26° Northeast 257 296 4,800 -900 Descending Cleveland Center
02:17PM 40.9072 -81.5667 North 241 277 3,900 -900 Descending Cleveland Center
02:18PM 40.9614 -81.5703 357° North 227 261 3,100 -600 Descending Cleveland Center
02:19PM 40.9847 -81.5183 59° Northeast 159 183 2,700 -360 Descending Cleveland Center
02:20PM 40.9811 -81.4606 95° East 135 155 2,400 -300 Descending Cleveland Center